createdAt,value
2023-02-08T00:00:13.498Z,16.33
2023-02-08T00:02:41.218Z,17.17
2023-02-08T00:05:08.472Z,16.93
2023-02-08T00:07:35.623Z,17.40
2023-02-08T00:10:05.169Z,16.50
2023-02-08T00:12:33.770Z,15.40
2023-02-08T00:15:01.041Z,15.97
2023-02-08T00:17:28.609Z,16.33
2023-02-08T00:19:56.088Z,16.13
2023-02-08T00:22:23.383Z,16.00
2023-02-08T00:24:51.552Z,15.80
2023-02-08T00:27:18.972Z,16.20
2023-02-08T00:29:46.156Z,17.10
2023-02-08T00:32:13.341Z,15.60
2023-02-08T00:34:40.499Z,16.90
2023-02-08T00:37:09.494Z,17.37
2023-02-08T00:39:36.685Z,19.27
2023-02-08T00:42:03.938Z,18.07
2023-02-08T00:44:33.042Z,16.23
2023-02-08T00:47:00.310Z,14.90
2023-02-08T00:49:27.468Z,13.73
2023-02-08T00:51:54.657Z,15.17
2023-02-08T00:54:22.015Z,15.57
2023-02-08T00:56:50.358Z,18.27
2023-02-08T00:59:19.104Z,17.67
2023-02-08T01:01:46.315Z,15.10
2023-02-08T01:04:13.566Z,14.00
2023-02-08T01:06:40.795Z,14.43
2023-02-08T01:09:07.944Z,14.77
2023-02-08T01:11:35.196Z,15.13
2023-02-08T01:14:02.495Z,14.87
2023-02-08T01:16:31.984Z,15.03
2023-02-08T01:19:03.100Z,13.87
2023-02-08T01:21:33.656Z,14.17
2023-02-08T01:24:02.216Z,14.43
2023-02-08T01:26:30.844Z,14.80
2023-02-08T01:28:59.366Z,14.13
2023-02-08T01:31:38.336Z,13.80
2023-02-08T01:34:07.317Z,14.63
2023-02-08T01:36:35.533Z,14.60
2023-02-08T01:39:04.486Z,14.40
2023-02-08T01:41:44.117Z,14.07
2023-02-08T01:44:11.267Z,13.80
2023-02-08T01:46:40.655Z,13.87
2023-02-08T01:49:17.368Z,13.77
2023-02-08T01:52:07.934Z,14.13
2023-02-08T01:55:13.533Z,14.33
2023-02-08T01:57:42.305Z,14.40
2023-02-08T02:00:16.459Z,15.00
2023-02-08T02:02:47.700Z,13.73
2023-02-08T02:05:17.185Z,14.07
2023-02-08T02:07:44.940Z,15.40
2023-02-08T02:10:34.092Z,13.90
2023-02-08T02:13:18.279Z,14.57
2023-02-08T02:15:46.515Z,14.77
2023-02-08T02:18:23.083Z,14.70
2023-02-08T02:21:08.154Z,15.23
2023-02-08T02:23:38.428Z,15.13
2023-02-08T02:26:32.099Z,15.80
2023-02-08T02:29:18.338Z,15.40
2023-02-08T02:32:08.642Z,14.83
2023-02-08T02:34:46.276Z,15.53
2023-02-08T02:37:16.549Z,15.53
2023-02-08T02:39:59.926Z,15.63
2023-02-08T02:43:04.122Z,14.87
2023-02-08T02:45:43.943Z,17.30
2023-02-08T02:48:52.989Z,18.60
2023-02-08T02:51:49.199Z,19.13
2023-02-08T02:54:16.590Z,18.53
2023-02-08T02:56:47.177Z,21.90
2023-02-08T02:59:15.665Z,24.73
2023-02-08T03:01:44.779Z,20.40
2023-02-08T03:04:38.493Z,23.27
2023-02-08T03:07:15.622Z,20.73
2023-02-08T03:09:46.128Z,18.40
2023-02-08T03:12:39.441Z,16.57
2023-02-08T03:15:22.718Z,16.83
2023-02-08T03:18:27.957Z,15.37
2023-02-08T03:21:19.494Z,15.03
2023-02-08T03:24:01.190Z,15.63
2023-02-08T03:26:28.321Z,15.80
2023-02-08T03:29:23.049Z,16.10
2023-02-08T03:31:50.519Z,16.17
2023-02-08T03:34:28.751Z,15.77
2023-02-08T03:37:16.686Z,15.17
2023-02-08T03:39:45.716Z,15.57
2023-02-08T03:42:21.903Z,15.47
2023-02-08T03:44:57.387Z,15.23
2023-02-08T03:47:33.461Z,16.80
2023-02-08T03:50:04.971Z,15.63
2023-02-08T03:52:34.036Z,15.70
2023-02-08T03:55:05.956Z,15.67
2023-02-08T03:57:57.846Z,16.37
2023-02-08T04:00:25.855Z,16.60
2023-02-08T04:03:12.223Z,16.63
2023-02-08T04:05:40.320Z,16.93
2023-02-08T04:08:07.798Z,16.57
2023-02-08T04:10:35.250Z,16.00
2023-02-08T04:13:02.531Z,15.60
2023-02-08T04:15:30.126Z,16.17
2023-02-08T04:17:57.440Z,15.90
2023-02-08T04:20:24.676Z,16.37
2023-02-08T04:22:51.998Z,15.93
2023-02-08T04:25:19.318Z,16.10
2023-02-08T04:27:46.660Z,16.27
2023-02-08T04:30:14.551Z,16.47
2023-02-08T04:32:41.836Z,15.90
2023-02-08T04:35:09.301Z,15.47
2023-02-08T04:37:36.553Z,15.47
2023-02-08T04:40:04.247Z,15.40
2023-02-08T04:42:31.531Z,16.47
2023-02-08T04:44:58.766Z,15.37
2023-02-08T04:47:26.246Z,16.90
2023-02-08T04:49:53.419Z,16.27
2023-02-08T04:52:22.068Z,16.80
2023-02-08T04:54:49.228Z,16.83
2023-02-08T04:57:16.422Z,17.27
2023-02-08T04:59:43.596Z,17.03
2023-02-08T05:02:10.833Z,17.03
2023-02-08T05:04:38.042Z,16.73
2023-02-08T05:07:05.502Z,17.67
2023-02-08T05:09:32.748Z,17.40
2023-02-08T05:11:59.926Z,18.03
2023-02-08T05:14:27.119Z,18.63
2023-02-08T05:16:54.263Z,18.20
2023-02-08T05:19:21.477Z,16.97
2023-02-08T05:21:48.636Z,17.83
2023-02-08T05:24:16.569Z,18.27
2023-02-08T05:26:43.720Z,18.00
2023-02-08T05:29:10.963Z,17.47
2023-02-08T05:31:38.233Z,18.17
2023-02-08T05:34:05.750Z,19.03
2023-02-08T05:36:32.971Z,17.93
2023-02-08T05:39:00.183Z,18.07
2023-02-08T05:41:27.557Z,18.07
2023-02-08T05:43:54.826Z,18.67
2023-02-08T05:46:22.143Z,19.23
2023-02-08T05:48:49.561Z,19.57
2023-02-08T05:51:16.801Z,18.73
2023-02-08T05:53:45.282Z,19.50
2023-02-08T05:56:12.554Z,19.10
2023-02-08T05:58:39.757Z,18.97
2023-02-08T06:01:10.628Z,19.90
2023-02-08T06:03:38.480Z,19.90
2023-02-08T06:06:06.803Z,19.70
2023-02-08T06:08:34.297Z,19.90
2023-02-08T06:11:01.448Z,19.33
2023-02-08T06:13:29.225Z,20.43
2023-02-08T06:15:56.928Z,20.23
2023-02-08T06:18:24.184Z,19.13
2023-02-08T06:20:55.143Z,19.27
2023-02-08T06:23:23.146Z,19.07
2023-02-08T06:25:50.465Z,19.90
2023-02-08T06:28:17.916Z,20.10
2023-02-08T06:30:45.338Z,19.50
2023-02-08T06:33:15.162Z,19.57
2023-02-08T06:35:47.398Z,19.57
2023-02-08T06:38:15.326Z,19.73
2023-02-08T06:40:42.982Z,20.77
2023-02-08T06:43:10.215Z,20.50
2023-02-08T06:45:37.635Z,20.47
2023-02-08T06:48:05.404Z,20.60
2023-02-08T06:50:32.997Z,20.27
2023-02-08T06:53:00.513Z,20.60
2023-02-08T06:55:27.975Z,21.07
2023-02-08T06:57:55.794Z,20.23
2023-02-08T07:00:23.122Z,19.87
2023-02-08T07:02:52.349Z,21.00
2023-02-08T07:05:20.044Z,21.33
2023-02-08T07:07:48.608Z,20.70
2023-02-08T07:10:17.014Z,31.97
2023-02-08T07:12:44.374Z,21.57
2023-02-08T07:15:13.422Z,21.13
2023-02-08T07:17:40.640Z,20.40
2023-02-08T07:20:08.707Z,20.60
2023-02-08T07:22:35.873Z,21.10
2023-02-08T07:25:03.806Z,20.33
2023-02-08T07:27:30.973Z,19.77
2023-02-08T07:29:58.424Z,20.33
2023-02-08T07:32:25.917Z,19.23
2023-02-08T07:34:54.392Z,20.70
2023-02-08T07:37:21.533Z,19.10
2023-02-08T07:39:48.703Z,20.30
2023-02-08T07:42:15.957Z,19.57
2023-02-08T07:44:54.044Z,19.07
2023-02-08T07:47:21.270Z,19.70
2023-02-08T07:49:48.409Z,18.67
2023-02-08T07:52:15.610Z,18.87
2023-02-08T07:54:42.795Z,19.03
2023-02-08T07:57:09.962Z,19.27
2023-02-08T07:59:37.390Z,19.63
2023-02-08T08:02:04.612Z,20.13
2023-02-08T08:04:31.785Z,18.47
2023-02-08T08:06:58.949Z,18.70
2023-02-08T08:09:26.155Z,18.83
2023-02-08T08:11:53.343Z,19.03
2023-02-08T08:14:20.581Z,18.97
2023-02-08T08:16:47.815Z,17.93
2023-02-08T08:19:15.051Z,18.67
2023-02-08T08:21:42.217Z,18.30
2023-02-08T08:24:09.420Z,19.03
2023-02-08T08:26:36.579Z,19.27
2023-02-08T08:29:03.849Z,19.37
2023-02-08T08:31:31.186Z,18.97
2023-02-08T08:33:58.470Z,18.87
2023-02-08T08:36:25.694Z,17.30
2023-02-08T08:38:52.934Z,18.10
2023-02-08T08:41:22.284Z,19.23
2023-02-08T08:43:49.813Z,18.33
2023-02-08T08:46:17.710Z,16.70
2023-02-08T08:48:46.070Z,17.83
2023-02-08T08:51:14.163Z,16.67
2023-02-08T08:53:41.473Z,16.33
2023-02-08T08:56:08.796Z,16.30
2023-02-08T08:58:36.019Z,17.20
2023-02-08T09:01:03.321Z,16.77
2023-02-08T09:03:30.859Z,15.90
2023-02-08T09:05:58.081Z,15.80
2023-02-08T09:08:25.230Z,17.20
2023-02-08T09:10:52.414Z,16.73
2023-02-08T09:13:21.151Z,15.17
2023-02-08T09:15:49.555Z,15.27
2023-02-08T09:18:16.972Z,15.97
2023-02-08T09:20:44.846Z,16.03
2023-02-08T09:23:12.690Z,16.57
2023-02-08T09:25:40.081Z,16.70
2023-02-08T09:28:07.399Z,17.63
2023-02-08T09:30:34.611Z,17.03
2023-02-08T09:33:01.799Z,16.53
2023-02-08T09:35:29.331Z,17.03
2023-02-08T09:37:58.151Z,15.87
2023-02-08T09:40:36.421Z,17.47
2023-02-08T09:43:49.734Z,17.50
2023-02-08T09:46:21.589Z,16.60
2023-02-08T09:48:52.527Z,16.33
2023-02-08T09:51:43.331Z,17.13
2023-02-08T09:54:28.092Z,16.60
2023-02-08T09:56:56.497Z,16.20
2023-02-08T09:59:26.938Z,16.93
2023-02-08T10:02:00.488Z,17.90
2023-02-08T10:04:41.178Z,17.53
2023-02-08T10:07:10.912Z,16.83
2023-02-08T10:09:38.081Z,16.23
2023-02-08T10:12:27.205Z,17.73
2023-02-08T10:15:09.525Z,16.17
2023-02-08T10:17:50.746Z,16.60
2023-02-08T10:20:42.711Z,16.43
2023-02-08T10:23:34.682Z,16.47
2023-02-08T10:26:18.760Z,16.77
2023-02-08T10:29:22.561Z,16.67
2023-02-08T10:32:08.057Z,16.77
2023-02-08T10:34:44.606Z,15.80
2023-02-08T10:37:17.404Z,14.93
2023-02-08T10:39:45.829Z,15.60
2023-02-08T10:42:20.327Z,15.17
2023-02-08T10:45:01.894Z,15.00
2023-02-08T10:47:51.969Z,14.77
2023-02-08T10:50:43.559Z,15.77
2023-02-08T10:53:19.717Z,13.93
2023-02-08T10:55:48.052Z,14.10
2023-02-08T10:58:21.853Z,14.63
2023-02-08T11:00:49.796Z,15.40
2023-02-08T11:03:22.585Z,15.23
2023-02-08T11:05:50.733Z,15.03
2023-02-08T11:08:23.382Z,15.20
2023-02-08T11:11:10.293Z,15.20
2023-02-08T11:13:44.296Z,14.77
2023-02-08T11:16:20.082Z,14.50
2023-02-08T11:18:58.514Z,13.47
2023-02-08T11:21:38.791Z,13.90
2023-02-08T11:24:15.132Z,14.53
2023-02-08T11:26:42.896Z,15.77
2023-02-08T11:29:15.648Z,14.60
2023-02-08T11:31:55.120Z,15.17
2023-02-08T11:34:27.769Z,14.70
2023-02-08T11:36:56.904Z,15.73
2023-02-08T11:39:36.266Z,15.80
2023-02-08T11:42:04.197Z,15.47
2023-02-08T11:44:43.079Z,16.63
2023-02-08T11:47:15.242Z,16.20
2023-02-08T11:49:44.589Z,15.83
2023-02-08T11:52:43.194Z,15.27
2023-02-08T11:55:19.487Z,15.63
2023-02-08T11:58:02.400Z,16.30
2023-02-08T12:00:36.692Z,18.03
2023-02-08T12:03:14.442Z,15.40
2023-02-08T12:06:07.340Z,15.93
2023-02-08T12:09:01.742Z,16.03
2023-02-08T12:12:10.922Z,17.27
2023-02-08T12:15:10.493Z,18.07
2023-02-08T12:17:56.869Z,16.73
2023-02-08T12:20:42.291Z,17.70
2023-02-08T12:23:43.940Z,16.10
2023-02-08T12:26:24.226Z,17.73
2023-02-08T12:29:13.697Z,17.93
2023-02-08T12:32:15.512Z,20.80
2023-02-08T12:35:10.522Z,19.03
2023-02-08T12:38:12.696Z,19.60
2023-02-08T12:41:09.544Z,20.67
2023-02-08T12:43:54.842Z,20.97
2023-02-08T12:46:27.175Z,21.23
2023-02-08T12:49:19.825Z,21.50
2023-02-08T12:52:17.591Z,22.93
2023-02-08T12:54:51.682Z,21.93
2023-02-08T12:57:21.464Z,22.00
2023-02-08T12:59:59.177Z,22.03
2023-02-08T13:02:46.569Z,21.03
2023-02-08T13:05:20.659Z,21.23
2023-02-08T13:07:51.399Z,21.40
2023-02-08T13:10:36.331Z,20.80
2023-02-08T13:13:25.551Z,20.27
2023-02-08T13:16:22.355Z,20.03
2023-02-08T13:19:13.823Z,19.40
2023-02-08T13:21:43.666Z,19.93
2023-02-08T13:24:33.271Z,20.30
2023-02-08T13:27:00.751Z,19.83
2023-02-08T13:29:29.642Z,20.57
2023-02-08T13:32:21.639Z,20.80
2023-02-08T13:34:54.919Z,18.00
2023-02-08T13:37:25.775Z,18.00
2023-02-08T13:40:05.445Z,18.07
2023-02-08T13:42:47.606Z,18.50
2023-02-08T13:45:43.977Z,17.57
2023-02-08T13:48:14.324Z,17.53
2023-02-08T13:50:43.438Z,18.70
2023-02-08T13:53:11.572Z,17.97
2023-02-08T13:55:54.693Z,17.60
2023-02-08T13:58:38.346Z,16.83
2023-02-08T14:01:08.484Z,16.93
2023-02-08T14:03:35.982Z,17.53
2023-02-08T14:06:19.041Z,16.70
2023-02-08T14:08:58.530Z,17.37
2023-02-08T14:11:34.293Z,17.00
2023-02-08T14:14:12.677Z,16.83
2023-02-08T14:17:07.140Z,16.43
2023-02-08T14:19:37.619Z,16.10
2023-02-08T14:22:12.307Z,15.80
2023-02-08T14:25:00.406Z,16.33
2023-02-08T14:27:42.297Z,15.53
2023-02-08T14:30:15.845Z,15.80
2023-02-08T14:32:54.086Z,16.13
2023-02-08T14:35:24.364Z,16.13
2023-02-08T14:38:20.501Z,15.97
2023-02-08T14:40:49.673Z,15.23
2023-02-08T14:43:19.823Z,14.90
2023-02-08T14:45:49.949Z,14.30
2023-02-08T14:48:43.777Z,13.87
2023-02-08T14:51:10.945Z,13.70
2023-02-08T14:53:46.883Z,13.77
2023-02-08T14:56:19.387Z,13.87
2023-02-08T14:58:58.563Z,14.03
2023-02-08T15:01:28.557Z,14.17
2023-02-08T15:04:02.148Z,14.80
2023-02-08T15:06:57.618Z,14.10
2023-02-08T15:09:28.895Z,13.43
2023-02-08T15:12:03.936Z,14.37
2023-02-08T15:14:35.490Z,14.90
2023-02-08T15:17:03.168Z,14.03
2023-02-08T15:19:38.330Z,14.70
2023-02-08T15:22:24.356Z,14.27
2023-02-08T15:24:59.472Z,14.80
2023-02-08T15:27:33.274Z,19.47
2023-02-08T15:30:01.087Z,14.37
2023-02-08T15:32:29.534Z,15.17
2023-02-08T15:34:59.905Z,15.20
2023-02-08T15:37:31.542Z,14.83
2023-02-08T15:40:00.257Z,16.07
2023-02-08T15:42:29.675Z,16.07
2023-02-08T15:44:56.973Z,14.93
2023-02-08T15:47:29.873Z,14.53
2023-02-08T15:49:58.056Z,15.50
2023-02-08T15:52:29.912Z,15.13
2023-02-08T15:54:57.299Z,14.47
2023-02-08T15:57:35.933Z,15.07
2023-02-08T16:00:07.000Z,14.80
2023-02-08T16:02:35.174Z,15.60
2023-02-08T16:05:11.389Z,14.77
2023-02-08T16:07:43.388Z,15.40
2023-02-08T16:10:25.374Z,15.07
2023-02-08T16:12:59.209Z,15.50
2023-02-08T16:15:45.051Z,15.80
2023-02-08T16:18:33.896Z,15.03
2023-02-08T16:21:03.094Z,15.43
2023-02-08T16:23:33.322Z,15.10
2023-02-08T16:26:16.552Z,15.53
2023-02-08T16:28:43.847Z,13.70
2023-02-08T16:31:11.404Z,15.47
2023-02-08T16:33:39.565Z,14.57
2023-02-08T16:36:06.909Z,14.70
2023-02-08T16:38:34.722Z,15.47
2023-02-08T16:41:12.891Z,14.77
2023-02-08T16:43:43.866Z,15.27
2023-02-08T16:46:11.204Z,14.10
2023-02-08T16:48:41.232Z,15.93
2023-02-08T16:51:15.629Z,14.93
2023-02-08T16:53:43.442Z,15.13
2023-02-08T16:56:11.457Z,14.77
2023-02-08T16:58:38.991Z,14.40
2023-02-08T17:01:06.916Z,14.53
2023-02-08T17:03:36.510Z,14.03
2023-02-08T17:06:04.210Z,14.97
2023-02-08T17:08:32.974Z,15.73
2023-02-08T17:11:00.221Z,14.67
2023-02-08T17:13:27.410Z,18.23
2023-02-08T17:15:55.306Z,16.50
2023-02-08T17:18:22.802Z,15.30
2023-02-08T17:20:50.731Z,16.37
2023-02-08T17:23:17.893Z,16.57
2023-02-08T17:25:45.541Z,17.23
2023-02-08T17:28:18.202Z,16.83
2023-02-08T17:30:46.158Z,17.77
2023-02-08T17:33:19.739Z,17.23
2023-02-08T17:35:51.714Z,20.90
2023-02-08T17:38:20.594Z,16.40
2023-02-08T17:40:48.084Z,16.03
2023-02-08T17:43:15.580Z,15.83
2023-02-08T17:45:44.596Z,15.97
2023-02-08T17:48:15.548Z,16.00
2023-02-08T17:50:46.962Z,15.77
2023-02-08T17:53:14.204Z,16.93
2023-02-08T17:55:42.786Z,16.23
2023-02-08T17:58:10.366Z,15.57
2023-02-08T18:00:37.657Z,17.63
2023-02-08T18:03:04.878Z,16.13
2023-02-08T18:05:32.100Z,16.33
2023-02-08T18:07:59.303Z,17.10
2023-02-08T18:10:28.136Z,16.97
2023-02-08T18:12:55.718Z,16.23
2023-02-08T18:15:24.001Z,15.73
2023-02-08T18:17:51.275Z,19.23
2023-02-08T18:20:18.972Z,19.63
2023-02-08T18:22:46.399Z,18.10
2023-02-08T18:25:14.302Z,16.47
2023-02-08T18:27:41.628Z,16.80
2023-02-08T18:30:10.014Z,17.83
2023-02-08T18:32:37.239Z,18.93
2023-02-08T18:35:07.529Z,17.60
2023-02-08T18:37:36.545Z,18.73
2023-02-08T18:40:05.716Z,18.63
2023-02-08T18:42:34.544Z,19.37
2023-02-08T18:45:06.693Z,19.07
2023-02-08T18:47:35.914Z,23.57
2023-02-08T18:50:03.375Z,20.83
2023-02-08T18:52:31.627Z,19.13
2023-02-08T18:54:59.349Z,19.73
2023-02-08T18:57:26.595Z,17.90
2023-02-08T18:59:54.244Z,16.20
2023-02-08T19:02:22.663Z,17.23
2023-02-08T19:04:49.889Z,16.83
2023-02-08T19:07:17.033Z,21.20
2023-02-08T19:09:44.345Z,18.40
2023-02-08T19:12:15.294Z,20.57
2023-02-08T19:14:43.454Z,20.63
2023-02-08T19:17:13.603Z,19.53
2023-02-08T19:19:42.246Z,18.83
2023-02-08T19:22:09.736Z,19.10
2023-02-08T19:24:37.077Z,19.33
2023-02-08T19:27:04.477Z,18.37
2023-02-08T19:29:33.319Z,18.70
2023-02-08T19:32:00.599Z,18.57
2023-02-08T19:34:27.818Z,18.63
2023-02-08T19:36:55.177Z,17.47
2023-02-08T19:39:25.369Z,17.80
2023-02-08T19:41:53.815Z,19.03
2023-02-08T19:44:21.734Z,17.87
2023-02-08T19:46:53.313Z,18.07
2023-02-08T19:49:22.354Z,18.53
2023-02-08T19:51:49.899Z,18.43
2023-02-08T19:54:18.968Z,21.70
2023-02-08T19:56:46.999Z,24.10
2023-02-08T19:59:19.650Z,18.67
2023-02-08T20:01:47.355Z,17.93
2023-02-08T20:04:14.862Z,21.00
2023-02-08T20:06:44.838Z,19.50
2023-02-08T20:09:13.303Z,19.47
2023-02-08T20:11:55.070Z,19.40
2023-02-08T20:14:24.122Z,19.80
2023-02-08T20:16:51.371Z,20.33
2023-02-08T20:19:18.597Z,21.07
2023-02-08T20:21:45.923Z,20.27
2023-02-08T20:24:13.870Z,20.10
2023-02-08T20:26:43.635Z,19.70
2023-02-08T20:29:11.248Z,21.63
2023-02-08T20:31:42.413Z,45.83
2023-02-08T20:34:12.639Z,40.03
2023-02-08T20:36:44.086Z,19.13
2023-02-08T20:39:14.788Z,21.43
2023-02-08T20:41:45.674Z,21.53
2023-02-08T20:44:14.547Z,20.80
2023-02-08T20:46:43.070Z,21.83
2023-02-08T20:49:13.663Z,20.87
2023-02-08T20:51:41.196Z,21.50
2023-02-08T20:54:09.681Z,20.47
2023-02-08T20:56:38.028Z,20.83
2023-02-08T20:59:08.427Z,20.87
2023-02-08T21:01:36.320Z,20.73
2023-02-08T21:04:04.793Z,20.17
2023-02-08T21:06:34.851Z,21.97
2023-02-08T21:09:05.753Z,20.93
2023-02-08T21:11:33.824Z,19.90
2023-02-08T21:14:01.794Z,21.23
2023-02-08T21:16:29.973Z,20.77
2023-02-08T21:18:57.671Z,20.40
2023-02-08T21:21:25.875Z,21.13
2023-02-08T21:23:53.073Z,21.17
2023-02-08T21:26:21.032Z,21.67
2023-02-08T21:28:51.712Z,25.00
2023-02-08T21:31:21.941Z,26.73
2023-02-08T21:33:50.562Z,27.67
2023-02-08T21:36:21.022Z,27.90
2023-02-08T21:38:48.626Z,24.90
2023-02-08T21:41:20.103Z,24.30
2023-02-08T21:43:48.157Z,25.80
2023-02-08T21:46:16.293Z,24.93
2023-02-08T21:49:02.026Z,22.63
2023-02-08T21:51:47.883Z,21.43
2023-02-08T21:54:36.786Z,21.47
2023-02-08T21:57:06.177Z,19.33
2023-02-08T21:59:37.689Z,20.37
2023-02-08T22:02:06.698Z,20.03
2023-02-08T22:04:35.352Z,19.93
2023-02-08T22:07:04.421Z,18.50
2023-02-08T22:09:31.742Z,17.97
2023-02-08T22:11:59.226Z,19.20
2023-02-08T22:14:26.510Z,19.03
2023-02-08T22:16:53.688Z,19.07
2023-02-08T22:19:20.865Z,19.10
2023-02-08T22:21:48.055Z,19.33
2023-02-08T22:24:15.235Z,18.83
2023-02-08T22:26:43.787Z,20.20
2023-02-08T22:29:11.152Z,18.47
2023-02-08T22:31:38.464Z,17.93
2023-02-08T22:34:05.790Z,18.67
2023-02-08T22:36:33.309Z,19.90
2023-02-08T22:39:00.554Z,19.13
2023-02-08T22:41:27.810Z,17.43
2023-02-08T22:43:54.996Z,18.23
2023-02-08T22:46:22.221Z,18.53
2023-02-08T22:48:49.490Z,17.63
2023-02-08T22:51:18.673Z,18.43
2023-02-08T22:53:46.527Z,17.53
2023-02-08T22:56:15.238Z,18.40
2023-02-08T22:58:42.423Z,18.40
2023-02-08T23:01:16.057Z,17.50
2023-02-08T23:03:43.594Z,18.70
2023-02-08T23:06:14.921Z,18.17
2023-02-08T23:08:42.437Z,18.37
2023-02-08T23:11:12.202Z,17.90
2023-02-08T23:13:39.537Z,16.87
2023-02-08T23:16:07.199Z,67.40
2023-02-08T23:18:35.979Z,36.63
2023-02-08T23:21:07.835Z,42.00
2023-02-08T23:23:35.472Z,27.07
2023-02-08T23:26:07.388Z,21.73
2023-02-08T23:28:36.978Z,18.90
2023-02-08T23:31:05.911Z,17.80
2023-02-08T23:33:34.212Z,16.73
2023-02-08T23:36:08.261Z,16.27
2023-02-08T23:38:35.802Z,15.33
2023-02-08T23:41:12.584Z,14.93
2023-02-08T23:43:40.020Z,15.83
2023-02-08T23:46:13.814Z,16.13
2023-02-08T23:48:41.501Z,16.47
2023-02-08T23:51:09.775Z,16.60
2023-02-08T23:53:37.629Z,16.63
2023-02-08T23:56:08.159Z,16.20
2023-02-08T23:58:35.412Z,17.43
